createdAt,value
2018-03-30T06:27:43.006Z,1.80
2018-03-30T06:30:09.079Z,1.80
2018-03-30T06:32:35.039Z,1.80
2018-03-30T06:35:01.081Z,1.90
2018-03-30T06:37:27.073Z,1.90
2018-03-30T06:39:53.803Z,1.80
2018-03-30T06:42:19.802Z,1.80
2018-03-30T06:44:45.800Z,1.90
2018-03-30T06:47:11.771Z,2.00
2018-03-30T06:49:38.531Z,2.00
2018-03-30T06:52:05.263Z,2.10
2018-03-30T06:54:31.982Z,2.10
2018-03-30T06:56:57.996Z,2.10
2018-03-30T06:59:23.991Z,2.00
2018-03-30T07:01:49.991Z,2.10
2018-03-30T07:04:16.044Z,2.20
2018-03-30T07:06:42.064Z,2.20
2018-03-30T07:09:08.069Z,2.10
2018-03-30T07:11:34.075Z,2.20
2018-03-30T07:14:00.811Z,2.20
2018-03-30T07:16:26.848Z,2.20
2018-03-30T07:18:52.937Z,3.00
2018-03-30T07:21:18.951Z,2.70
2018-03-30T07:23:44.948Z,2.60
2018-03-30T07:26:10.959Z,2.60
2018-03-30T07:28:36.990Z,2.50
2018-03-30T07:31:03.014Z,2.30
2018-03-30T07:33:29.007Z,2.40
2018-03-30T07:35:55.747Z,2.40
2018-03-30T07:38:21.748Z,2.40
2018-03-30T07:40:48.512Z,2.60
2018-03-30T07:43:14.475Z,2.60
2018-03-30T07:45:40.467Z,2.60
2018-03-30T07:48:07.178Z,2.60
2018-03-30T07:50:33.227Z,2.60
2018-03-30T07:52:59.964Z,2.70
2018-03-30T07:55:26.712Z,2.70
2018-03-30T07:57:52.740Z,2.70
2018-03-30T08:00:18.774Z,2.70
2018-03-30T08:02:44.787Z,2.60
2018-03-30T08:05:10.767Z,2.50
2018-03-30T08:07:36.788Z,2.50
2018-03-30T08:10:03.149Z,2.60
2018-03-30T08:12:29.907Z,2.80
2018-03-30T08:14:55.916Z,2.70
2018-03-30T08:17:22.667Z,2.80
2018-03-30T08:19:48.656Z,2.80
2018-03-30T08:22:14.654Z,3.00
2018-03-30T08:24:40.655Z,3.00
2018-03-30T08:27:06.666Z,3.10
2018-03-30T08:29:32.687Z,3.20
2018-03-30T08:31:58.658Z,3.20
2018-03-30T08:34:24.654Z,3.20
2018-03-30T08:36:50.626Z,3.30
2018-03-30T08:39:16.623Z,3.40
2018-03-30T08:41:42.606Z,3.40
2018-03-30T08:44:08.686Z,3.40
2018-03-30T08:46:34.706Z,3.40
2018-03-30T08:49:00.698Z,3.40
2018-03-30T08:51:26.679Z,3.40
2018-03-30T08:53:52.655Z,3.40
2018-03-30T08:56:18.683Z,3.40
2018-03-30T08:58:44.708Z,3.40
2018-03-30T09:01:10.699Z,3.60
2018-03-30T09:03:36.703Z,3.50
2018-03-30T09:06:03.422Z,3.50
2018-03-30T09:08:29.420Z,3.50
2018-03-30T09:10:55.407Z,3.50
2018-03-30T09:13:21.411Z,3.60
2018-03-30T09:15:47.419Z,3.70
2018-03-30T09:18:16.172Z,3.80
2018-03-30T09:20:42.159Z,3.80
2018-03-30T09:23:08.159Z,3.80
2018-03-30T09:25:34.150Z,3.90
2018-03-30T09:28:00.131Z,3.80
2018-03-30T09:30:26.105Z,4.00
2018-03-30T09:32:52.065Z,4.00
2018-03-30T09:35:18.776Z,3.90
2018-03-30T09:37:45.024Z,3.90
2018-03-30T09:40:11.747Z,4.00
2018-03-30T09:42:37.697Z,3.90
2018-03-30T09:45:04.424Z,4.20
2018-03-30T09:47:31.116Z,4.20
2018-03-30T09:49:57.114Z,4.20
2018-03-30T09:52:23.100Z,4.20
2018-03-30T09:54:49.094Z,4.20
2018-03-30T09:57:15.099Z,4.30
2018-03-30T09:59:41.085Z,4.30
2018-03-30T10:02:07.806Z,4.20
2018-03-30T10:04:33.915Z,4.20
2018-03-30T10:06:59.903Z,4.30
2018-03-30T10:09:25.928Z,4.30
2018-03-30T10:11:51.901Z,4.40
2018-03-30T10:14:17.907Z,4.50
2018-03-30T10:16:44.203Z,4.40
2018-03-30T10:19:10.210Z,4.30
2018-03-30T10:21:36.198Z,4.30
2018-03-30T10:24:02.206Z,4.40
2018-03-30T10:26:28.186Z,4.30
2018-03-30T10:28:54.145Z,4.20
2018-03-30T10:31:20.143Z,4.40
2018-03-30T10:33:46.129Z,4.40
2018-03-30T10:36:12.866Z,4.60
2018-03-30T10:38:38.899Z,4.60
2018-03-30T10:41:04.919Z,4.60
2018-03-30T10:43:31.669Z,4.80
2018-03-30T10:45:57.794Z,4.70
2018-03-30T10:48:23.852Z,4.70
2018-03-30T10:50:50.044Z,4.70
2018-03-30T10:53:16.861Z,4.70
2018-03-30T10:55:42.841Z,4.70
2018-03-30T10:58:08.809Z,4.60
2018-03-30T11:00:35.570Z,4.70
2018-03-30T11:03:02.286Z,4.80
2018-03-30T11:05:28.278Z,4.70
2018-03-30T11:07:54.264Z,4.90
2018-03-30T11:10:20.974Z,5.00
2018-03-30T11:12:46.975Z,5.00
2018-03-30T11:15:13.014Z,5.10
2018-03-30T11:17:39.767Z,5.20
2018-03-30T11:20:05.748Z,5.20
2018-03-30T11:22:31.893Z,5.20
2018-03-30T11:24:57.868Z,5.30
2018-03-30T11:27:23.862Z,5.40
2018-03-30T11:29:49.832Z,5.50
2018-03-30T11:32:15.819Z,5.60
2018-03-30T11:34:41.783Z,5.50
2018-03-30T11:37:07.781Z,5.60
2018-03-30T11:39:33.799Z,5.80
2018-03-30T11:41:59.794Z,5.90
2018-03-30T11:44:25.806Z,6.10
2018-03-30T11:46:51.799Z,6.20
2018-03-30T11:49:17.787Z,6.20
2018-03-30T11:51:44.535Z,6.20
2018-03-30T11:54:10.565Z,6.20
2018-03-30T11:56:36.567Z,6.20
2018-03-30T11:59:03.327Z,6.50
2018-03-30T12:01:29.328Z,6.50
2018-03-30T12:03:56.066Z,6.20
2018-03-30T12:06:22.795Z,6.10
2018-03-30T12:08:48.795Z,6.10
2018-03-30T12:11:14.787Z,6.20
2018-03-30T12:13:40.820Z,6.30
2018-03-30T12:16:06.801Z,6.40
2018-03-30T12:18:33.530Z,6.30
2018-03-30T12:20:59.518Z,6.30
2018-03-30T12:23:25.510Z,6.20
2018-03-30T12:25:51.515Z,6.30
2018-03-30T12:28:18.259Z,6.60
2018-03-30T12:30:44.992Z,6.50
2018-03-30T12:33:11.722Z,6.70
2018-03-30T12:35:38.459Z,6.90
2018-03-30T12:38:05.198Z,7.00
2018-03-30T12:40:31.202Z,7.00
2018-03-30T12:42:57.199Z,6.90
2018-03-30T12:45:23.166Z,7.00
2018-03-30T12:47:49.143Z,7.10
2018-03-30T12:50:15.207Z,7.20
2018-03-30T12:52:41.214Z,7.40
2018-03-30T12:55:07.181Z,7.60
2018-03-30T12:57:33.898Z,7.50
2018-03-30T12:59:59.860Z,7.50
2018-03-30T13:02:25.841Z,7.60
2018-03-30T13:04:51.822Z,7.50
2018-03-30T13:07:17.791Z,7.50
2018-03-30T13:09:43.838Z,7.80
2018-03-30T13:12:10.546Z,7.60
2018-03-30T13:14:36.543Z,7.60
2018-03-30T13:17:02.526Z,7.70
2018-03-30T13:19:28.522Z,7.60
2018-03-30T13:21:54.546Z,7.50
2018-03-30T13:24:20.543Z,7.60
2018-03-30T13:26:46.513Z,8.00
2018-03-30T13:29:13.259Z,9.40
2018-03-30T13:31:39.254Z,9.40
2018-03-30T13:34:05.273Z,10.00
2018-03-30T13:36:31.234Z,10.00
2018-03-30T13:38:57.223Z,10.20
2018-03-30T13:41:23.960Z,9.20
2018-03-30T13:43:49.966Z,9.10
2018-03-30T13:46:15.946Z,8.80
2018-03-30T13:48:42.048Z,8.60
2018-03-30T13:51:10.863Z,8.50
2018-03-30T13:53:36.880Z,8.60
2018-03-30T13:56:06.431Z,8.90
2018-03-30T13:58:33.403Z,8.90
2018-03-30T14:01:00.390Z,9.10
2018-03-30T14:03:26.646Z,9.10
2018-03-30T14:05:56.202Z,8.90
2018-03-30T14:08:31.916Z,8.80
2018-03-30T14:10:58.133Z,8.90
2018-03-30T14:13:24.119Z,9.10
2018-03-30T14:15:50.847Z,9.00
2018-03-30T14:18:27.019Z,9.00
2018-03-30T14:20:53.856Z,9.10
2018-03-30T14:23:20.652Z,9.10
2018-03-30T14:25:46.852Z,9.10
2018-03-30T14:28:12.868Z,9.20
2018-03-30T14:30:48.895Z,9.30
2018-03-30T14:33:20.586Z,10.50
2018-03-30T14:35:48.546Z,10.50
2018-03-30T14:38:27.020Z,10.30
2018-03-30T14:40:53.018Z,9.60
2018-03-30T14:43:19.816Z,9.80
2018-03-30T14:45:49.719Z,9.70
2018-03-30T14:48:15.710Z,9.20
2018-03-30T14:50:42.115Z,9.70
2018-03-30T14:53:10.177Z,9.70
2018-03-30T14:55:48.074Z,9.60
2018-03-30T14:58:14.923Z,9.60
2018-03-30T15:00:40.986Z,9.30
2018-03-30T15:03:06.982Z,9.40
2018-03-30T15:05:35.007Z,9.20
2018-03-30T15:08:04.767Z,9.50
2018-03-30T15:10:30.791Z,9.50
2018-03-30T15:12:58.603Z,9.60
2018-03-30T15:15:40.307Z,9.60
2018-03-30T15:18:11.251Z,9.60
2018-03-30T15:20:37.265Z,9.50
2018-03-30T15:23:07.247Z,9.60
2018-03-30T15:25:33.272Z,9.30
2018-03-30T15:28:00.099Z,9.20
2018-03-30T15:30:42.945Z,9.20
2018-03-30T15:33:09.684Z,9.90
2018-03-30T15:35:38.243Z,9.80
2018-03-30T15:38:04.238Z,9.70
2018-03-30T15:40:30.240Z,9.60
2018-03-30T15:42:57.219Z,9.40
2018-03-30T15:45:23.236Z,9.30
2018-03-30T15:47:49.231Z,9.20
2018-03-30T15:50:15.270Z,9.10
2018-03-30T15:52:42.178Z,9.20
2018-03-30T15:55:08.967Z,9.70
2018-03-30T15:57:34.982Z,9.70
2018-03-30T16:00:16.815Z,9.80
2018-03-30T16:02:42.892Z,9.50
2018-03-30T16:05:09.014Z,9.30
2018-03-30T16:07:35.012Z,9.70
2018-03-30T16:10:12.091Z,9.90
2018-03-30T16:12:38.095Z,9.90
2018-03-30T16:15:04.134Z,9.30
2018-03-30T16:17:30.135Z,9.40
2018-03-30T16:19:56.071Z,9.70
2018-03-30T16:22:22.007Z,9.00
2018-03-30T16:24:49.811Z,9.20
2018-03-30T16:27:15.947Z,9.20
2018-03-30T16:29:42.689Z,8.90
2018-03-30T16:32:08.782Z,8.80
2018-03-30T16:34:35.986Z,8.40
2018-03-30T16:37:02.884Z,8.40
2018-03-30T16:39:29.258Z,8.00
2018-03-30T16:41:55.494Z,8.10
2018-03-30T16:44:22.206Z,7.90
2018-03-30T16:46:48.158Z,7.90
2018-03-30T16:49:14.085Z,7.70
2018-03-30T16:51:40.059Z,7.70
2018-03-30T16:54:05.999Z,8.00
2018-03-30T16:56:31.946Z,8.00
2018-03-30T16:58:57.878Z,8.10
2018-03-30T17:01:23.823Z,7.90
2018-03-30T17:03:50.506Z,7.70
2018-03-30T17:06:16.447Z,7.70
2018-03-30T17:08:42.395Z,7.90
2018-03-30T17:11:08.334Z,7.80
2018-03-30T17:13:35.031Z,7.80
2018-03-30T17:16:00.983Z,7.80
2018-03-30T17:18:27.962Z,7.20
2018-03-30T17:20:53.898Z,7.10
2018-03-30T17:23:19.866Z,6.80
2018-03-30T17:25:45.820Z,6.80
2018-03-30T17:28:11.759Z,6.80
2018-03-30T17:30:37.691Z,6.70
2018-03-30T17:33:03.660Z,6.60
2018-03-30T17:35:30.360Z,6.20
2018-03-30T17:37:57.094Z,5.90
2018-03-30T17:40:23.078Z,5.90
2018-03-30T17:42:49.751Z,5.90
2018-03-30T17:45:15.675Z,5.90
2018-03-30T17:47:41.900Z,6.10
2018-03-30T17:50:07.951Z,5.50
2018-03-30T17:52:33.866Z,5.50
2018-03-30T17:54:59.830Z,5.50
2018-03-30T17:57:25.755Z,5.50
2018-03-30T17:59:51.707Z,5.40
2018-03-30T18:02:17.780Z,5.50
2018-03-30T18:04:43.723Z,5.50
2018-03-30T18:07:10.390Z,5.30
2018-03-30T18:09:36.327Z,5.30
2018-03-30T18:12:02.315Z,5.30
2018-03-30T18:14:28.255Z,5.10
2018-03-30T18:16:54.178Z,4.90
2018-03-30T18:19:20.118Z,5.10
2018-03-30T18:21:46.395Z,5.20
2018-03-30T18:24:13.270Z,5.10
2018-03-30T18:26:39.534Z,5.10
2018-03-30T18:29:05.845Z,5.10
2018-03-30T18:31:31.862Z,5.10
2018-03-30T18:33:57.911Z,4.90
2018-03-30T18:36:23.879Z,4.70
2018-03-30T18:38:50.548Z,4.60
2018-03-30T18:41:16.487Z,4.60
2018-03-30T18:43:42.443Z,4.70
2018-03-30T18:46:08.438Z,4.80
2018-03-30T18:48:34.379Z,4.80
2018-03-30T18:51:00.342Z,4.80
2018-03-30T18:53:27.003Z,4.50
2018-03-30T18:55:52.955Z,4.50
2018-03-30T18:58:18.884Z,4.50
2018-03-30T19:00:44.831Z,4.40
2018-03-30T19:03:10.736Z,4.50
2018-03-30T19:05:37.435Z,4.50
2018-03-30T19:08:03.342Z,4.50
2018-03-30T19:10:29.308Z,4.50
2018-03-30T19:12:55.243Z,4.30
2018-03-30T19:15:21.924Z,4.40
2018-03-30T19:17:47.883Z,4.40
2018-03-30T19:20:13.920Z,4.40
2018-03-30T19:22:39.918Z,4.40
2018-03-30T19:25:05.876Z,4.30
2018-03-30T19:27:32.579Z,4.30
2018-03-30T19:29:58.518Z,4.30
2018-03-30T19:32:24.478Z,4.30
2018-03-30T19:34:50.419Z,4.30
2018-03-30T19:37:16.376Z,4.30
2018-03-30T19:39:42.303Z,4.30
2018-03-30T19:42:08.255Z,4.40
2018-03-30T19:44:35.030Z,4.30
2018-03-30T19:47:00.997Z,4.30
2018-03-30T19:49:26.925Z,4.40
2018-03-30T19:51:52.871Z,4.20
2018-03-30T19:54:19.542Z,4.10
2018-03-30T19:56:45.474Z,4.10
2018-03-30T19:59:11.390Z,4.20
2018-03-30T20:01:37.418Z,4.20
2018-03-30T20:04:03.356Z,4.10
2018-03-30T20:06:29.323Z,4.20
2018-03-30T20:08:55.979Z,4.20
2018-03-30T20:11:21.979Z,4.20
2018-03-30T20:13:47.899Z,4.10
2018-03-30T20:16:14.571Z,4.10
2018-03-30T20:18:40.518Z,4.10
2018-03-30T20:21:06.442Z,4.10
2018-03-30T20:23:32.372Z,4.10
2018-03-30T20:25:58.310Z,4.00
2018-03-30T20:28:24.251Z,4.00
2018-03-30T20:30:50.914Z,4.10
2018-03-30T20:33:16.844Z,4.10
2018-03-30T20:35:42.777Z,4.10
2018-03-30T20:38:08.719Z,4.10
2018-03-30T20:40:34.753Z,4.10
2018-03-30T20:43:00.708Z,3.90
2018-03-30T20:45:26.635Z,3.90
2018-03-30T20:47:52.574Z,3.90
2018-03-30T20:50:18.528Z,3.90
2018-03-30T20:52:44.485Z,4.00
2018-03-30T20:55:11.163Z,3.80
2018-03-30T20:57:37.119Z,3.80
2018-03-30T21:00:03.054Z,3.80
2018-03-30T21:02:29.743Z,3.70
2018-03-30T21:04:55.674Z,3.70
2018-03-30T21:07:21.611Z,3.50
2018-03-30T21:09:47.570Z,3.60
2018-03-30T21:12:14.230Z,3.60
2018-03-30T21:14:41.270Z,3.80
2018-03-30T21:17:07.462Z,3.80
2018-03-30T21:19:33.413Z,3.80
2018-03-30T21:22:00.079Z,3.80
2018-03-30T21:24:26.002Z,3.80
2018-03-30T21:26:51.982Z,3.70
2018-03-30T21:29:19.433Z,3.70
2018-03-30T21:31:45.383Z,3.70
2018-03-30T21:34:12.067Z,3.60
2018-03-30T21:36:38.039Z,3.60
2018-03-30T21:39:04.852Z,3.50
2018-03-30T21:41:31.603Z,3.50
2018-03-30T21:43:57.704Z,3.50
2018-03-30T21:46:23.651Z,3.50
2018-03-30T21:48:49.584Z,3.50
2018-03-30T21:51:16.288Z,3.40
2018-03-30T21:53:42.280Z,3.50
2018-03-30T21:56:08.287Z,3.50
2018-03-30T21:58:34.216Z,3.40
2018-03-30T22:01:00.165Z,3.50
2018-03-30T22:03:26.137Z,3.40
2018-03-30T22:05:52.834Z,3.30
2018-03-30T22:08:18.775Z,3.30
2018-03-30T22:10:44.743Z,3.30
2018-03-30T22:13:10.768Z,3.20
2018-03-30T22:15:36.767Z,3.30
2018-03-30T22:18:02.759Z,3.30
2018-03-30T22:20:28.722Z,3.30
2018-03-30T22:22:55.407Z,3.30
2018-03-30T22:25:21.378Z,3.30
2018-03-30T22:27:47.371Z,3.00
2018-03-30T22:30:13.344Z,3.30
2018-03-30T22:32:39.310Z,3.30
2018-03-30T22:35:05.232Z,3.40
2018-03-30T22:37:31.215Z,3.40
2018-03-30T22:39:57.178Z,3.40
2018-03-30T22:42:23.143Z,3.30
2018-03-30T22:44:49.815Z,3.10
2018-03-30T22:47:15.767Z,3.10
2018-03-30T22:49:41.703Z,3.10
2018-03-30T22:52:07.860Z,3.20
2018-03-30T22:54:33.791Z,3.30
2018-03-30T22:56:59.747Z,3.40
2018-03-30T22:59:25.688Z,3.20
2018-03-30T23:01:51.636Z,3.20
2018-03-30T23:04:18.306Z,3.20
2018-03-30T23:06:44.254Z,3.20
2018-03-30T23:09:10.197Z,3.20
2018-03-30T23:11:36.147Z,3.00
2018-03-30T23:14:02.276Z,3.10
2018-03-30T23:16:28.278Z,3.10
2018-03-30T23:18:54.955Z,3.00
2018-03-30T23:21:20.919Z,3.00
2018-03-30T23:23:46.870Z,3.00
2018-03-30T23:26:13.563Z,3.10
2018-03-30T23:28:39.587Z,3.10
2018-03-30T23:31:05.551Z,3.20
2018-03-30T23:33:32.255Z,3.10
2018-03-30T23:35:58.217Z,3.10
2018-03-30T23:38:24.903Z,3.20
2018-03-30T23:40:50.840Z,3.20
2018-03-30T23:43:16.792Z,3.10
2018-03-30T23:45:43.475Z,3.10
2018-03-30T23:48:09.431Z,3.10
2018-03-30T23:50:35.370Z,3.20
2018-03-30T23:53:01.343Z,3.00
2018-03-30T23:55:27.263Z,3.00
2018-03-30T23:57:53.234Z,3.00
